createdAt,value
2019-06-10T00:02:17.659Z,96.90
2019-06-10T00:04:50.712Z,96.80
2019-06-10T00:07:21.143Z,97.10
2019-06-10T00:09:51.804Z,97.20
2019-06-10T00:12:22.910Z,97.10
2019-06-10T00:14:53.783Z,97.20
2019-06-10T00:17:24.584Z,97.30
2019-06-10T00:19:55.325Z,97.40
2019-06-10T00:22:26.054Z,97.60
2019-06-10T00:24:57.514Z,97.60
2019-06-10T00:27:31.181Z,97.60
2019-06-10T00:30:03.398Z,97.70
2019-06-10T00:32:33.959Z,97.70
2019-06-10T00:35:07.731Z,97.70
2019-06-10T00:37:38.684Z,97.90
2019-06-10T00:40:13.780Z,97.80
2019-06-10T00:42:42.176Z,97.70
2019-06-10T00:45:17.865Z,97.70
2019-06-10T00:47:45.468Z,97.70
2019-06-10T00:50:16.187Z,97.80
2019-06-10T00:52:47.217Z,97.70
2019-06-10T00:55:17.747Z,97.80
2019-06-10T00:57:50.848Z,97.90
2019-06-10T01:00:25.632Z,97.70
2019-06-10T01:02:52.814Z,97.90
2019-06-10T01:05:23.355Z,97.80
2019-06-10T01:07:54.043Z,98.20
2019-06-10T01:10:25.543Z,97.90
2019-06-10T01:12:57.200Z,98.10
2019-06-10T01:15:27.772Z,98.10
2019-06-10T01:17:58.363Z,98.00
2019-06-10T01:20:28.885Z,98.00
2019-06-10T01:23:01.504Z,98.00
2019-06-10T01:25:31.405Z,98.10
2019-06-10T01:28:05.619Z,98.10
2019-06-10T01:30:36.281Z,98.20
2019-06-10T01:33:06.701Z,98.10
2019-06-10T01:35:37.292Z,98.10
2019-06-10T01:38:07.905Z,98.10
2019-06-10T01:40:38.320Z,98.10
2019-06-10T01:43:11.040Z,98.10
2019-06-10T01:45:41.944Z,98.20
2019-06-10T01:48:14.926Z,98.20
2019-06-10T01:50:44.674Z,98.10
2019-06-10T01:53:16.075Z,98.30
2019-06-10T01:55:47.432Z,98.50
2019-06-10T01:58:23.213Z,98.50
2019-06-10T02:01:23.346Z,98.60
2019-06-10T02:03:55.349Z,98.60
2019-06-10T02:06:26.149Z,98.40
2019-06-10T02:09:05.778Z,98.50
2019-06-10T02:11:37.241Z,98.50
2019-06-10T02:14:09.403Z,98.50
2019-06-10T02:16:41.512Z,98.70
2019-06-10T02:19:14.254Z,98.80
2019-06-10T02:21:44.181Z,98.90
2019-06-10T02:24:16.415Z,98.90
2019-06-10T02:26:47.497Z,99.10
2019-06-10T02:29:19.704Z,99.20
2019-06-10T02:31:52.230Z,99.30
2019-06-10T02:34:27.112Z,99.70
2019-06-10T02:36:55.019Z,99.30
2019-06-10T02:39:33.461Z,99.70
2019-06-10T02:42:04.420Z,99.90
2019-06-10T02:44:37.509Z,99.90
2019-06-10T02:47:08.173Z,99.90
2019-06-10T02:49:56.472Z,99.90
2019-06-10T02:52:24.662Z,99.90
2019-06-10T02:54:53.421Z,99.90
2019-06-10T02:57:30.488Z,99.90
2019-06-10T02:59:56.591Z,99.90
2019-06-10T03:02:31.534Z,99.90
2019-06-10T03:04:59.577Z,99.90
2019-06-10T03:07:34.875Z,99.90
2019-06-10T03:10:04.640Z,99.90
2019-06-10T03:12:35.714Z,99.90
2019-06-10T03:15:07.635Z,99.90
2019-06-10T03:17:38.540Z,99.90
2019-06-10T03:20:09.320Z,99.90
2019-06-10T03:22:42.147Z,99.90
2019-06-10T03:25:26.482Z,99.90
2019-06-10T03:27:57.819Z,99.90
2019-06-10T03:30:44.236Z,99.90
2019-06-10T03:33:04.661Z,99.90
2019-06-10T03:35:33.086Z,99.90
2019-06-10T03:38:04.916Z,99.90
2019-06-10T03:40:35.384Z,99.90
2019-06-10T03:43:05.853Z,99.90
2019-06-10T03:45:36.451Z,99.90
2019-06-10T03:48:07.659Z,99.90
2019-06-10T03:50:38.105Z,99.90
2019-06-10T03:53:08.548Z,99.90
2019-06-10T03:55:39.504Z,99.90
2019-06-10T03:58:12.460Z,99.80
2019-06-10T04:00:43.116Z,99.70
2019-06-10T04:03:13.603Z,99.60
2019-06-10T04:05:44.190Z,99.50
2019-06-10T04:08:14.608Z,99.40
2019-06-10T04:10:45.112Z,99.40
2019-06-10T04:13:15.639Z,99.30
2019-06-10T04:15:46.209Z,99.10
2019-06-10T04:18:17.829Z,98.80
2019-06-10T04:20:48.693Z,97.70
2019-06-10T04:23:19.684Z,96.50
2019-06-10T04:25:52.538Z,94.80
2019-06-10T04:28:24.685Z,94.20
2019-06-10T04:30:54.948Z,93.40
2019-06-10T04:33:26.206Z,91.70
2019-06-10T04:35:58.254Z,91.50
2019-06-10T04:38:29.110Z,90.00
2019-06-10T04:40:59.831Z,88.10
2019-06-10T04:43:32.313Z,85.40
2019-06-10T04:46:02.821Z,82.10
2019-06-10T04:48:33.373Z,80.70
2019-06-10T04:51:04.818Z,77.80
2019-06-10T04:53:35.341Z,76.10
2019-06-10T04:56:05.745Z,76.40
2019-06-10T04:58:36.301Z,74.20
2019-06-10T05:01:06.839Z,73.20
2019-06-10T05:03:37.563Z,72.40
2019-06-10T05:06:08.071Z,67.50
2019-06-10T05:08:38.917Z,66.00
2019-06-10T05:11:12.628Z,65.20
2019-06-10T05:13:48.594Z,61.60
2019-06-10T05:16:19.565Z,63.30
2019-06-10T05:18:54.028Z,62.30
2019-06-10T05:21:25.068Z,61.60
2019-06-10T05:23:55.052Z,59.60
2019-06-10T05:26:27.163Z,58.70
2019-06-10T05:28:57.812Z,57.80
2019-06-10T05:31:30.064Z,56.20
2019-06-10T05:34:02.393Z,56.70
2019-06-10T05:36:34.778Z,54.20
2019-06-10T05:39:07.910Z,54.50
2019-06-10T05:41:39.051Z,52.30
2019-06-10T05:44:09.606Z,49.80
2019-06-10T05:46:40.394Z,49.80
2019-06-10T05:49:12.556Z,49.00
2019-06-10T05:51:43.278Z,48.20
2019-06-10T05:54:13.979Z,49.30
2019-06-10T05:56:44.572Z,49.80
2019-06-10T05:59:15.538Z,49.40
2019-06-10T06:01:46.235Z,48.70
2019-06-10T06:04:16.774Z,48.00
2019-06-10T06:06:47.484Z,47.00
2019-06-10T06:09:18.482Z,45.40
2019-06-10T06:11:49.291Z,44.60
2019-06-10T06:14:19.776Z,44.40
2019-06-10T06:16:53.187Z,44.30
2019-06-10T06:19:23.151Z,44.20
2019-06-10T06:21:53.863Z,43.70
2019-06-10T06:24:25.557Z,42.70
2019-06-10T06:26:56.401Z,42.80
2019-06-10T06:29:27.221Z,42.20
2019-06-10T06:31:58.046Z,42.80
2019-06-10T06:34:28.534Z,42.30
2019-06-10T06:36:59.419Z,41.70
2019-06-10T06:39:32.255Z,42.70
2019-06-10T06:42:02.719Z,41.30
2019-06-10T06:44:36.091Z,41.00
2019-06-10T06:47:05.334Z,40.80
2019-06-10T06:49:37.095Z,39.80
2019-06-10T06:52:08.838Z,40.00
2019-06-10T06:54:42.505Z,39.10
2019-06-10T06:57:13.471Z,39.70
2019-06-10T06:59:44.336Z,40.50
2019-06-10T07:02:15.533Z,38.70
2019-06-10T07:04:46.740Z,38.90
2019-06-10T07:07:22.089Z,39.20
2019-06-10T07:09:54.131Z,40.40
2019-06-10T07:12:26.875Z,40.20
2019-06-10T07:14:59.877Z,40.10
2019-06-10T07:17:32.003Z,40.20
2019-06-10T07:20:04.025Z,39.40
2019-06-10T07:22:36.883Z,40.60
2019-06-10T07:25:08.194Z,40.60
2019-06-10T07:27:42.864Z,41.10
2019-06-10T07:30:18.123Z,40.50
2019-06-10T07:32:49.307Z,38.70
2019-06-10T07:35:22.068Z,39.90
2019-06-10T07:37:52.445Z,39.80
2019-06-10T07:40:24.367Z,39.40
2019-06-10T07:42:54.938Z,39.20
2019-06-10T07:45:25.923Z,40.30
2019-06-10T07:47:56.719Z,41.00
2019-06-10T07:50:27.443Z,40.60
2019-06-10T07:52:57.963Z,40.60
2019-06-10T07:55:28.948Z,41.80
2019-06-10T07:57:59.437Z,42.30
2019-06-10T08:00:30.463Z,42.30
2019-06-10T08:03:02.435Z,41.30
2019-06-10T08:05:34.206Z,42.40
2019-06-10T08:08:05.689Z,43.10
2019-06-10T08:10:37.043Z,44.10
2019-06-10T08:13:07.661Z,44.80
2019-06-10T08:15:39.735Z,44.20
2019-06-10T08:18:12.990Z,45.60
2019-06-10T08:20:47.473Z,46.40
2019-06-10T08:23:19.547Z,45.60
2019-06-10T08:25:56.575Z,47.30
2019-06-10T08:28:23.342Z,48.40
2019-06-10T08:30:53.829Z,48.80
2019-06-10T08:33:24.536Z,48.20
2019-06-10T08:36:00.208Z,48.90
2019-06-10T08:38:27.397Z,49.20
2019-06-10T08:40:57.905Z,49.60
2019-06-10T08:43:28.665Z,50.30
2019-06-10T08:45:59.103Z,50.40
2019-06-10T08:48:29.760Z,51.70
2019-06-10T08:51:03.269Z,50.10
2019-06-10T08:53:33.320Z,50.50
2019-06-10T08:56:03.981Z,51.40
2019-06-10T08:58:34.909Z,53.20
2019-06-10T09:01:05.779Z,52.10
2019-06-10T09:03:38.539Z,52.60
2019-06-10T09:06:08.621Z,52.30
2019-06-10T09:08:41.070Z,52.70
2019-06-10T09:11:13.002Z,53.20
2019-06-10T09:13:48.054Z,53.50
2019-06-10T09:16:19.474Z,52.60
2019-06-10T09:18:52.034Z,52.70
2019-06-10T09:21:22.469Z,51.90
2019-06-10T09:23:59.853Z,53.60
2019-06-10T09:26:25.884Z,53.20
2019-06-10T09:28:56.813Z,52.50
2019-06-10T09:31:27.738Z,52.50
2019-06-10T09:33:58.350Z,51.60
2019-06-10T09:36:29.285Z,53.30
2019-06-10T09:39:00.014Z,52.20
2019-06-10T09:41:37.349Z,52.00
2019-06-10T09:44:03.366Z,52.20
2019-06-10T09:46:36.542Z,52.70
2019-06-10T09:49:07.558Z,52.60
2019-06-10T09:51:38.494Z,51.00
2019-06-10T09:54:09.262Z,52.00
2019-06-10T09:56:41.105Z,52.20
2019-06-10T09:59:14.603Z,51.80
2019-06-10T10:01:49.067Z,53.00
2019-06-10T10:04:17.685Z,52.60
2019-06-10T10:06:51.846Z,52.30
2019-06-10T10:09:23.178Z,52.60
2019-06-10T10:11:55.307Z,52.70
2019-06-10T10:14:25.801Z,50.50
2019-06-10T10:17:00.271Z,51.70
2019-06-10T10:19:29.088Z,52.50
2019-06-10T10:21:59.830Z,53.30
2019-06-10T10:24:30.658Z,53.00
2019-06-10T10:27:05.217Z,52.30
2019-06-10T10:29:33.823Z,52.20
2019-06-10T10:32:04.561Z,51.80
2019-06-10T10:34:35.164Z,51.50
2019-06-10T10:37:05.774Z,50.80
2019-06-10T10:39:36.293Z,52.60
2019-06-10T10:42:07.007Z,51.80
2019-06-10T10:44:37.532Z,52.60
2019-06-10T10:47:08.036Z,52.30
2019-06-10T10:49:38.604Z,53.20
2019-06-10T10:52:09.437Z,54.00
2019-06-10T10:54:39.944Z,53.90
2019-06-10T10:57:13.050Z,53.00
2019-06-10T10:59:43.547Z,53.70
2019-06-10T11:02:14.840Z,52.70
2019-06-10T11:04:47.929Z,53.20
2019-06-10T11:07:18.615Z,54.40
2019-06-10T11:09:50.308Z,53.50
2019-06-10T11:12:22.920Z,52.70
2019-06-10T11:15:00.484Z,54.20
2019-06-10T11:17:27.812Z,54.60
2019-06-10T11:19:58.561Z,53.80
2019-06-10T11:22:29.118Z,54.70
2019-06-10T11:24:59.748Z,54.50
2019-06-10T11:27:32.989Z,55.20
2019-06-10T11:30:04.084Z,55.40
2019-06-10T11:32:34.971Z,56.30
2019-06-10T11:35:06.469Z,55.90
2019-06-10T11:37:37.613Z,55.90
2019-06-10T11:40:08.073Z,55.40
2019-06-10T11:42:38.565Z,55.80
2019-06-10T11:45:10.127Z,56.40
2019-06-10T11:47:42.595Z,55.80
2019-06-10T11:50:14.013Z,55.80
2019-06-10T11:52:45.003Z,56.30
2019-06-10T11:55:19.136Z,58.00
2019-06-10T11:57:47.960Z,56.70
2019-06-10T12:00:23.067Z,56.40
2019-06-10T12:02:55.547Z,57.40
2019-06-10T12:05:25.829Z,56.90
2019-06-10T12:07:59.801Z,57.40
2019-06-10T12:10:28.717Z,56.50
2019-06-10T12:13:04.254Z,56.90
2019-06-10T12:15:46.232Z,57.30
2019-06-10T12:18:08.450Z,56.90
2019-06-10T12:20:36.432Z,55.60
2019-06-10T12:23:07.125Z,55.20
2019-06-10T12:25:39.709Z,55.80
2019-06-10T12:28:09.816Z,55.40
2019-06-10T12:30:42.339Z,55.50
2019-06-10T12:33:21.438Z,55.60
2019-06-10T12:35:45.410Z,54.90
2019-06-10T12:38:15.947Z,54.00
2019-06-10T12:40:46.505Z,55.50
2019-06-10T12:43:17.840Z,54.70
2019-06-10T12:45:48.412Z,53.10
2019-06-10T12:48:19.448Z,53.70
2019-06-10T12:50:50.252Z,53.70
2019-06-10T12:53:22.917Z,53.80
2019-06-10T12:55:55.482Z,53.50
2019-06-10T12:58:25.823Z,53.20
2019-06-10T13:00:57.215Z,53.80
2019-06-10T13:03:28.005Z,52.20
2019-06-10T13:06:02.885Z,52.90
2019-06-10T13:08:35.726Z,52.40
2019-06-10T13:11:06.162Z,51.30
2019-06-10T13:13:36.737Z,51.10
2019-06-10T13:16:09.122Z,50.70
2019-06-10T13:18:39.619Z,50.40
2019-06-10T13:21:16.482Z,50.10
2019-06-10T13:23:43.331Z,51.80
2019-06-10T13:26:16.639Z,51.50
2019-06-10T13:28:46.343Z,49.80
2019-06-10T13:31:18.788Z,49.80
2019-06-10T13:33:49.616Z,49.70
2019-06-10T13:36:25.376Z,49.70
2019-06-10T13:38:53.383Z,50.80
2019-06-10T13:41:24.171Z,50.60
2019-06-10T13:43:54.967Z,49.80
2019-06-10T13:46:25.726Z,49.60
2019-06-10T13:48:56.944Z,50.20
2019-06-10T13:51:27.865Z,50.30
2019-06-10T13:53:58.711Z,49.90
2019-06-10T13:56:43.219Z,50.40
2019-06-10T13:59:04.198Z,49.60
2019-06-10T14:01:35.121Z,50.10
2019-06-10T14:04:13.773Z,49.50
2019-06-10T14:06:47.055Z,48.80
2019-06-10T14:09:16.025Z,49.60
2019-06-10T14:11:42.939Z,50.10
2019-06-10T14:14:17.413Z,49.30
2019-06-10T14:16:46.145Z,49.90
2019-06-10T14:19:16.916Z,49.70
2019-06-10T14:21:47.585Z,48.90
2019-06-10T14:24:18.316Z,49.60
2019-06-10T14:26:49.191Z,49.40
2019-06-10T14:29:20.129Z,50.30
2019-06-10T14:31:53.253Z,49.20
2019-06-10T14:34:22.993Z,49.20
2019-06-10T14:36:53.753Z,49.60
2019-06-10T14:39:24.715Z,48.40
2019-06-10T14:41:55.522Z,49.10
2019-06-10T14:44:26.189Z,50.30
2019-06-10T14:46:56.861Z,50.90
2019-06-10T14:49:27.424Z,50.00
2019-06-10T14:51:58.249Z,50.20
2019-06-10T14:54:28.992Z,50.50
2019-06-10T14:56:59.555Z,50.30
2019-06-10T14:59:30.283Z,49.60
2019-06-10T15:02:02.830Z,50.00
2019-06-10T15:04:33.550Z,49.20
2019-06-10T15:07:04.616Z,50.10
2019-06-10T15:09:35.364Z,50.20
2019-06-10T15:12:05.971Z,50.20
2019-06-10T15:14:36.774Z,49.10
2019-06-10T15:17:08.505Z,49.10
2019-06-10T15:19:39.277Z,49.60
2019-06-10T15:22:12.206Z,50.10
2019-06-10T15:24:42.896Z,49.90
2019-06-10T15:27:23.358Z,49.80
2019-06-10T15:29:46.857Z,50.10
2019-06-10T15:32:29.696Z,49.90
2019-06-10T15:34:49.657Z,50.20
2019-06-10T15:37:21.342Z,49.10
2019-06-10T15:39:52.924Z,49.70
2019-06-10T15:42:23.979Z,49.60
2019-06-10T15:44:55.992Z,49.70
2019-06-10T15:47:28.027Z,49.40
2019-06-10T15:49:58.891Z,50.20
2019-06-10T15:52:29.832Z,50.20
2019-06-10T15:55:00.398Z,50.10
2019-06-10T15:57:40.731Z,50.20
2019-06-10T16:00:11.251Z,50.70
2019-06-10T16:02:35.989Z,50.50
2019-06-10T16:05:07.194Z,50.10
2019-06-10T16:07:37.929Z,50.60
2019-06-10T16:10:09.029Z,50.50
2019-06-10T16:12:39.682Z,51.30
2019-06-10T16:15:13.326Z,51.00
2019-06-10T16:17:43.382Z,52.00
2019-06-10T16:20:15.802Z,51.70
2019-06-10T16:22:46.484Z,51.40
2019-06-10T16:25:17.779Z,51.80
2019-06-10T16:27:51.071Z,52.60
2019-06-10T16:30:23.171Z,53.00
2019-06-10T16:32:53.873Z,53.80
2019-06-10T16:35:26.782Z,54.30
2019-06-10T16:37:57.177Z,54.60
2019-06-10T16:40:27.872Z,55.60
2019-06-10T16:42:58.634Z,55.80
2019-06-10T16:45:33.849Z,56.00
2019-06-10T16:48:04.127Z,56.50
2019-06-10T16:50:35.025Z,56.90
2019-06-10T16:53:05.862Z,57.00
2019-06-10T16:55:36.545Z,57.40
2019-06-10T16:58:08.468Z,57.80
2019-06-10T17:00:39.655Z,57.90
2019-06-10T17:03:12.675Z,58.10
2019-06-10T17:05:43.389Z,58.10
2019-06-10T17:08:15.321Z,58.40
2019-06-10T17:10:46.460Z,58.60
2019-06-10T17:13:19.282Z,58.60
2019-06-10T17:15:49.772Z,58.60
2019-06-10T17:18:23.108Z,58.40
2019-06-10T17:20:53.681Z,58.20
2019-06-10T17:23:28.947Z,59.30
2019-06-10T17:25:58.569Z,59.00
2019-06-10T17:28:33.891Z,59.10
2019-06-10T17:31:03.734Z,59.10
2019-06-10T17:33:35.686Z,59.10
2019-06-10T17:36:06.365Z,59.60
2019-06-10T17:38:36.929Z,59.50
2019-06-10T17:41:07.780Z,59.60
2019-06-10T17:43:38.592Z,59.60
2019-06-10T17:46:09.374Z,59.70
2019-06-10T17:48:40.272Z,60.30
2019-06-10T17:51:11.151Z,60.10
2019-06-10T17:53:42.706Z,60.30
2019-06-10T17:56:13.706Z,60.30
2019-06-10T17:58:53.777Z,60.10
2019-06-10T18:01:17.241Z,60.30
2019-06-10T18:03:48.064Z,60.50
2019-06-10T18:06:18.757Z,60.20
2019-06-10T18:08:49.445Z,60.30
2019-06-10T18:11:20.119Z,60.50
2019-06-10T18:13:52.783Z,60.50
2019-06-10T18:16:24.523Z,60.70
2019-06-10T18:18:56.024Z,60.70
2019-06-10T18:21:26.901Z,60.60
2019-06-10T18:24:07.280Z,60.90
2019-06-10T18:26:30.978Z,60.80
2019-06-10T18:29:08.076Z,60.90
2019-06-10T18:31:36.767Z,60.70
2019-06-10T18:34:07.774Z,61.00
2019-06-10T18:36:38.764Z,61.30
2019-06-10T18:39:12.230Z,61.90
2019-06-10T18:41:42.201Z,61.30
2019-06-10T18:44:22.502Z,61.30
2019-06-10T18:46:45.667Z,61.60
2019-06-10T18:49:16.533Z,61.70
2019-06-10T18:51:47.380Z,61.90
2019-06-10T18:54:18.016Z,62.10
2019-06-10T18:56:48.886Z,62.50
2019-06-10T18:59:21.171Z,62.60
2019-06-10T19:01:52.703Z,62.80
2019-06-10T19:04:23.797Z,63.00
2019-06-10T19:06:54.641Z,63.00
2019-06-10T19:09:25.557Z,63.00
2019-06-10T19:11:56.299Z,63.20
2019-06-10T19:14:27.362Z,63.60
2019-06-10T19:16:58.240Z,63.60
2019-06-10T19:19:29.903Z,63.50
2019-06-10T19:22:08.220Z,63.50
2019-06-10T19:24:34.913Z,63.40
2019-06-10T19:27:05.787Z,63.70
2019-06-10T19:29:45.309Z,63.90
2019-06-10T19:32:09.373Z,64.20
2019-06-10T19:34:42.493Z,64.50
2019-06-10T19:37:13.035Z,65.10
2019-06-10T19:39:50.256Z,65.60
2019-06-10T19:42:17.414Z,66.00
2019-06-10T19:44:48.344Z,66.70
2019-06-10T19:47:18.997Z,66.90
2019-06-10T19:49:52.119Z,67.90
2019-06-10T19:52:23.433Z,68.10
2019-06-10T19:54:54.795Z,67.90
2019-06-10T19:57:25.739Z,68.00
2019-06-10T20:00:10.588Z,68.00
2019-06-10T20:02:32.614Z,68.20
2019-06-10T20:05:03.169Z,68.40
2019-06-10T20:07:34.479Z,68.80
2019-06-10T20:10:06.812Z,68.80
2019-06-10T20:12:38.458Z,68.80
2019-06-10T20:15:19.312Z,69.30
2019-06-10T20:17:52.507Z,69.50
2019-06-10T20:20:23.586Z,70.00
2019-06-10T20:22:57.385Z,70.10
2019-06-10T20:25:27.499Z,70.50
2019-06-10T20:27:58.643Z,71.00
2019-06-10T20:30:29.863Z,71.00
2019-06-10T20:33:03.424Z,71.10
2019-06-10T20:35:33.815Z,71.40
2019-06-10T20:38:05.308Z,71.90
2019-06-10T20:40:38.074Z,72.30
2019-06-10T20:43:08.834Z,72.50
2019-06-10T20:45:39.873Z,72.60
2019-06-10T20:48:10.610Z,72.90
2019-06-10T20:50:44.075Z,73.00
2019-06-10T20:53:18.516Z,73.20
2019-06-10T20:55:54.001Z,73.30
2019-06-10T20:58:19.836Z,73.90
2019-06-10T21:00:54.111Z,74.10
2019-06-10T21:03:23.422Z,74.40
2019-06-10T21:05:54.435Z,74.80
2019-06-10T21:08:26.366Z,74.80
2019-06-10T21:10:57.532Z,74.80
2019-06-10T21:13:28.335Z,75.10
2019-06-10T21:15:59.387Z,75.20
2019-06-10T21:18:32.718Z,75.20
2019-06-10T21:21:02.823Z,75.70
2019-06-10T21:23:33.564Z,76.00
2019-06-10T21:26:04.380Z,76.00
2019-06-10T21:28:35.254Z,76.00
2019-06-10T21:31:06.207Z,76.00
2019-06-10T21:33:38.612Z,76.30
2019-06-10T21:36:09.101Z,77.00
2019-06-10T21:38:39.858Z,77.70
2019-06-10T21:41:12.336Z,78.50
2019-06-10T21:43:48.129Z,79.10
2019-06-10T21:46:14.999Z,79.70
2019-06-10T21:48:47.370Z,79.80
2019-06-10T21:51:18.694Z,79.80
2019-06-10T21:53:50.650Z,80.00
2019-06-10T21:56:22.883Z,79.90
2019-06-10T21:58:55.384Z,80.50
2019-06-10T22:01:25.685Z,81.40
2019-06-10T22:04:00.727Z,82.30
2019-06-10T22:06:28.971Z,83.00
2019-06-10T22:08:59.900Z,83.30
2019-06-10T22:11:30.980Z,83.90
2019-06-10T22:14:02.782Z,84.20
2019-06-10T22:16:33.828Z,84.50
2019-06-10T22:19:04.679Z,84.90
2019-06-10T22:21:36.073Z,85.20
2019-06-10T22:24:06.957Z,85.90
2019-06-10T22:26:37.730Z,86.00
2019-06-10T22:29:08.802Z,85.70
2019-06-10T22:31:42.736Z,86.20
2019-06-10T22:34:14.340Z,86.40
2019-06-10T22:36:45.502Z,87.00
2019-06-10T22:39:16.788Z,87.60
2019-06-10T22:41:47.600Z,87.90
2019-06-10T22:44:18.774Z,88.20
2019-06-10T22:46:51.898Z,88.70
2019-06-10T22:49:23.696Z,88.90
2019-06-10T22:51:57.937Z,89.40
2019-06-10T22:54:27.410Z,89.70
2019-06-10T22:56:58.601Z,89.70
2019-06-10T22:59:29.708Z,90.00
2019-06-10T23:02:02.826Z,90.30
2019-06-10T23:04:33.407Z,90.50
2019-06-10T23:07:04.390Z,90.60
2019-06-10T23:09:35.595Z,90.90
2019-06-10T23:12:06.718Z,91.00
2019-06-10T23:14:38.594Z,91.00
2019-06-10T23:17:09.559Z,91.30
2019-06-10T23:19:42.746Z,91.50
2019-06-10T23:22:13.901Z,91.50
2019-06-10T23:24:45.025Z,91.60
2019-06-10T23:27:15.969Z,91.60
2019-06-10T23:29:46.803Z,91.70
2019-06-10T23:32:18.282Z,91.80
2019-06-10T23:34:48.909Z,91.90
2019-06-10T23:37:19.662Z,92.00
2019-06-10T23:39:50.719Z,92.20
2019-06-10T23:42:22.780Z,92.40
2019-06-10T23:44:53.594Z,92.70
2019-06-10T23:47:24.442Z,92.70
2019-06-10T23:49:55.655Z,92.70
2019-06-10T23:52:26.898Z,93.00
2019-06-10T23:54:58.186Z,92.70
2019-06-10T23:57:28.986Z,92.70
